createdAt,value
2019-01-14T00:01:50.063Z,16.70
2019-01-14T00:04:20.403Z,14.37
2019-01-14T00:06:50.446Z,14.03
2019-01-14T00:09:23.392Z,19.63
2019-01-14T00:11:52.906Z,17.80
2019-01-14T00:14:22.974Z,20.90
2019-01-14T00:16:54.591Z,14.90
2019-01-14T00:19:25.014Z,15.30
2019-01-14T00:21:55.230Z,16.57
2019-01-14T00:24:25.482Z,13.13
2019-01-14T00:26:55.541Z,16.97
2019-01-14T00:29:25.692Z,20.17
2019-01-14T00:31:55.825Z,19.70
2019-01-14T00:34:26.465Z,19.93
2019-01-14T00:36:56.830Z,14.47
2019-01-14T00:39:27.500Z,17.60
2019-01-14T00:41:57.817Z,19.13
2019-01-14T00:44:27.891Z,14.70
2019-01-14T00:46:59.984Z,15.70
2019-01-14T00:49:30.167Z,17.43
2019-01-14T00:52:00.295Z,18.43
2019-01-14T00:54:31.756Z,17.53
2019-01-14T00:57:01.807Z,16.33
2019-01-14T00:59:31.931Z,15.47
2019-01-14T01:02:03.277Z,18.50
2019-01-14T01:04:33.325Z,15.20
2019-01-14T01:07:03.731Z,16.60
2019-01-14T01:09:34.029Z,18.43
2019-01-14T01:12:04.577Z,18.70
2019-01-14T01:14:34.848Z,15.90
2019-01-14T01:17:05.386Z,22.10
2019-01-14T01:19:35.925Z,16.57
2019-01-14T01:22:06.121Z,16.03
2019-01-14T01:24:36.219Z,18.27
2019-01-14T01:27:06.288Z,22.00
2019-01-14T01:29:41.264Z,16.90
2019-01-14T01:32:11.395Z,22.23
2019-01-14T01:34:41.604Z,16.57
2019-01-14T01:37:11.665Z,18.77
2019-01-14T01:39:41.780Z,17.93
2019-01-14T01:42:13.042Z,17.57
2019-01-14T01:44:43.594Z,16.80
2019-01-14T01:47:13.647Z,18.40
2019-01-14T01:49:43.786Z,17.53
2019-01-14T01:52:13.854Z,20.27
2019-01-14T01:54:44.121Z,11.60
2019-01-14T01:57:15.058Z,16.23
2019-01-14T01:59:48.152Z,15.87
2019-01-14T02:02:18.636Z,14.13
2019-01-14T02:04:48.814Z,15.97
2019-01-14T02:07:18.990Z,18.63
2019-01-14T02:09:49.390Z,15.20
2019-01-14T02:12:19.465Z,14.33
2019-01-14T02:14:49.650Z,19.03
2019-01-14T02:17:20.061Z,18.37
2019-01-14T02:19:50.387Z,19.73
2019-01-14T02:22:20.596Z,13.40
2019-01-14T02:24:50.716Z,17.90
2019-01-14T02:27:20.774Z,13.73
2019-01-14T02:29:50.892Z,17.77
2019-01-14T02:32:20.938Z,14.73
2019-01-14T02:34:51.422Z,18.20
2019-01-14T02:37:21.449Z,17.07
2019-01-14T02:39:51.587Z,16.63
2019-01-14T02:42:21.781Z,15.83
2019-01-14T02:44:52.052Z,15.57
2019-01-14T02:47:22.094Z,20.43
2019-01-14T02:49:52.456Z,17.77
2019-01-14T02:52:22.671Z,16.13
2019-01-14T02:54:52.767Z,19.07
2019-01-14T02:57:23.037Z,21.23
2019-01-14T02:59:53.135Z,19.73
2019-01-14T03:19:25.247Z,20.23
2019-01-14T03:22:08.404Z,19.43
2019-01-14T03:24:51.321Z,18.90
2019-01-14T03:27:34.405Z,20.23
2019-01-14T03:30:17.533Z,18.50
2019-01-14T03:33:00.678Z,23.13
2019-01-14T03:35:45.874Z,15.73
2019-01-14T03:38:27.611Z,21.27
2019-01-14T03:41:11.461Z,20.37
2019-01-14T03:43:55.067Z,18.60
2019-01-14T03:46:38.200Z,18.63
2019-01-14T03:49:19.598Z,18.27
2019-01-14T03:52:01.267Z,16.87
2019-01-14T03:54:42.927Z,21.13
2019-01-14T03:57:24.855Z,14.40
2019-01-14T03:59:54.880Z,21.83
2019-01-14T04:02:44.045Z,19.93
2019-01-14T04:05:25.908Z,21.77
2019-01-14T04:08:08.048Z,19.80
2019-01-14T04:10:50.873Z,15.13
2019-01-14T04:13:32.857Z,21.53
2019-01-14T04:16:16.005Z,18.60
2019-01-14T04:18:57.917Z,19.00
2019-01-14T04:21:40.145Z,20.57
2019-01-14T04:24:22.637Z,21.97
2019-01-14T04:27:04.557Z,22.80
2019-01-14T04:29:46.595Z,15.17
2019-01-14T04:32:28.554Z,20.97
2019-01-14T04:35:10.722Z,16.00
2019-01-14T04:37:52.907Z,22.30
2019-01-14T04:40:34.577Z,23.13
2019-01-14T04:43:17.440Z,19.63
2019-01-14T04:45:59.018Z,19.27
2019-01-14T04:48:40.817Z,19.33
2019-01-14T04:51:22.270Z,13.43
2019-01-14T04:54:04.038Z,23.00
2019-01-14T04:56:46.193Z,22.53
2019-01-14T04:59:28.034Z,19.03
2019-01-14T05:02:10.159Z,17.00
2019-01-14T05:04:52.877Z,24.73
2019-01-14T05:07:34.233Z,20.60
2019-01-14T05:10:16.200Z,15.90
2019-01-14T05:12:58.049Z,19.97
2019-01-14T05:15:34.938Z,21.10
2019-01-14T05:18:24.181Z,18.43
2019-01-14T05:20:54.739Z,14.47
2019-01-14T05:23:39.713Z,22.73
2019-01-14T05:26:21.211Z,17.33
2019-01-14T05:28:51.321Z,18.00
2019-01-14T05:31:21.587Z,14.83
2019-01-14T05:34:03.717Z,22.20
2019-01-14T05:36:45.224Z,18.00
2019-01-14T05:39:27.520Z,20.17
2019-01-14T05:42:09.052Z,16.40
2019-01-14T05:44:51.414Z,17.20
2019-01-14T05:47:33.515Z,15.90
2019-01-14T05:50:15.716Z,17.40
2019-01-14T05:52:57.337Z,26.20
2019-01-14T05:55:38.890Z,16.43
2019-01-14T05:58:21.338Z,17.90
2019-01-14T06:00:51.637Z,19.60
2019-01-14T06:03:41.996Z,17.47
2019-01-14T06:06:24.053Z,16.17
2019-01-14T06:09:07.096Z,18.90
2019-01-14T06:11:48.985Z,16.80
2019-01-14T06:14:30.606Z,17.67
2019-01-14T06:17:12.527Z,13.37
2019-01-14T06:19:54.971Z,17.07
2019-01-14T06:22:37.394Z,20.27
2019-01-14T06:25:21.408Z,16.43
2019-01-14T06:28:03.699Z,19.13
2019-01-14T06:30:45.877Z,19.50
2019-01-14T06:33:29.560Z,13.90
2019-01-14T06:36:12.530Z,22.37
2019-01-14T06:38:54.375Z,16.80
2019-01-14T06:41:37.237Z,16.63
2019-01-14T06:44:18.721Z,21.10
2019-01-14T06:47:00.543Z,19.10
2019-01-14T06:49:41.984Z,19.97
2019-01-14T06:52:23.855Z,17.30
2019-01-14T06:55:05.487Z,19.53
2019-01-14T06:57:48.258Z,14.57
2019-01-14T07:00:30.562Z,14.93
2019-01-14T07:03:12.646Z,21.57
2019-01-14T07:05:55.197Z,15.43
2019-01-14T07:08:36.829Z,15.60
2019-01-14T07:11:19.596Z,12.07
2019-01-14T07:14:01.638Z,8.63
2019-01-14T07:16:44.255Z,7.70
2019-01-14T07:19:25.719Z,9.27
2019-01-14T07:22:07.592Z,7.50
2019-01-14T07:24:49.925Z,13.20
2019-01-14T07:27:33.210Z,18.90
2019-01-14T07:30:15.430Z,21.57
2019-01-14T07:32:56.826Z,21.27
2019-01-14T07:35:39.267Z,24.40
2019-01-14T07:38:20.777Z,19.87
2019-01-14T07:41:02.810Z,22.97
2019-01-14T07:43:45.003Z,20.63
2019-01-14T07:46:26.754Z,22.50
2019-01-14T07:49:08.478Z,21.03
2019-01-14T07:51:50.742Z,16.83
2019-01-14T07:54:32.516Z,19.80
2019-01-14T07:57:14.484Z,26.00
2019-01-14T07:59:57.333Z,25.83
2019-01-14T08:02:39.402Z,17.73
2019-01-14T08:05:21.901Z,20.40
2019-01-14T08:08:03.930Z,23.10
2019-01-14T08:10:46.024Z,25.00
2019-01-14T08:13:27.909Z,20.00
2019-01-14T08:16:10.085Z,18.23
2019-01-14T08:18:51.768Z,22.63
2019-01-14T08:21:33.788Z,20.60
2019-01-14T08:24:15.940Z,24.20
2019-01-14T08:26:57.496Z,15.97
2019-01-14T08:29:39.517Z,18.47
2019-01-14T08:32:21.296Z,24.60
2019-01-14T08:35:03.491Z,18.53
2019-01-14T08:37:45.365Z,17.77
2019-01-14T08:40:27.655Z,16.37
2019-01-14T08:43:09.713Z,20.13
2019-01-14T08:45:52.640Z,18.53
2019-01-14T08:48:34.106Z,19.07
2019-01-14T08:51:16.020Z,15.23
2019-01-14T08:53:58.961Z,20.07
2019-01-14T08:56:41.924Z,19.27
2019-01-14T08:59:23.912Z,19.70
2019-01-14T09:02:05.830Z,12.10
2019-01-14T09:04:48.012Z,15.03
2019-01-14T09:07:29.616Z,11.77
2019-01-14T09:10:12.075Z,14.47
2019-01-14T09:12:54.160Z,9.67
2019-01-14T09:15:36.231Z,8.97
2019-01-14T09:18:18.242Z,8.23
2019-01-14T09:21:00.682Z,8.00
2019-01-14T09:23:43.538Z,6.57
2019-01-14T09:26:25.354Z,8.73
2019-01-14T09:29:06.924Z,9.73
2019-01-14T09:31:49.831Z,9.17
2019-01-14T09:34:31.901Z,9.03
2019-01-14T09:37:13.459Z,9.10
2019-01-14T09:39:55.615Z,10.13
2019-01-14T09:42:37.970Z,9.53
2019-01-14T09:45:20.088Z,7.27
2019-01-14T09:48:02.133Z,6.27
2019-01-14T09:50:43.886Z,11.30
2019-01-14T09:53:26.159Z,8.87
2019-01-14T09:56:08.395Z,6.33
2019-01-14T09:58:50.413Z,8.80
2019-01-14T10:01:31.822Z,11.47
2019-01-14T10:04:14.108Z,6.27
2019-01-14T10:06:56.963Z,6.47
2019-01-14T10:09:39.060Z,6.37
2019-01-14T10:12:09.494Z,8.37
2019-01-14T10:14:58.802Z,7.30
2019-01-14T10:17:41.095Z,5.87
2019-01-14T10:20:26.355Z,5.10
2019-01-14T10:23:08.142Z,5.17
2019-01-14T10:25:50.231Z,5.10
2019-01-14T10:28:34.253Z,10.13
2019-01-14T10:31:19.902Z,7.23
2019-01-14T10:34:00.050Z,6.10
2019-01-14T10:36:41.445Z,6.20
2019-01-14T10:39:23.189Z,7.13
2019-01-14T10:42:08.034Z,6.40
2019-01-14T10:44:49.899Z,9.03
2019-01-14T10:47:32.642Z,7.40
2019-01-14T10:50:14.573Z,8.13
2019-01-14T10:52:56.711Z,8.40
2019-01-14T10:55:38.407Z,5.63
2019-01-14T10:58:20.296Z,6.57
2019-01-14T11:01:01.928Z,5.80
2019-01-14T11:03:43.351Z,7.70
2019-01-14T11:06:25.806Z,7.23
2019-01-14T11:09:09.539Z,5.00
2019-01-14T11:11:51.544Z,7.40
2019-01-14T11:14:33.338Z,5.97
2019-01-14T11:17:15.253Z,4.87
2019-01-14T11:19:57.066Z,5.70
2019-01-14T11:22:38.974Z,5.53
2019-01-14T11:25:22.046Z,7.33
2019-01-14T11:28:04.073Z,6.90
2019-01-14T11:30:49.167Z,7.93
2019-01-14T11:33:32.288Z,8.20
2019-01-14T11:36:14.447Z,5.90
2019-01-14T11:38:55.804Z,7.03
2019-01-14T11:41:37.942Z,5.60
2019-01-14T11:44:20.672Z,6.87
2019-01-14T11:47:03.169Z,4.20
2019-01-14T11:49:44.847Z,6.93
2019-01-14T11:52:26.725Z,3.90
2019-01-14T11:55:08.722Z,6.10
2019-01-14T11:57:38.852Z,7.03
2019-01-14T12:00:27.952Z,5.43
2019-01-14T12:03:11.981Z,6.47
2019-01-14T12:05:53.848Z,5.93
2019-01-14T12:08:36.251Z,7.37
2019-01-14T12:11:17.842Z,6.67
2019-01-14T12:14:00.438Z,7.93
2019-01-14T12:16:42.135Z,9.07
2019-01-14T12:19:24.146Z,6.90
2019-01-14T12:22:06.118Z,6.63
2019-01-14T12:24:47.527Z,7.27
2019-01-14T12:27:29.546Z,6.03
2019-01-14T12:30:12.063Z,8.63
2019-01-14T12:32:54.142Z,9.47
2019-01-14T12:35:35.851Z,7.77
2019-01-14T12:38:18.057Z,4.63
2019-01-14T12:40:59.743Z,4.30
2019-01-14T12:43:43.214Z,12.33
2019-01-14T12:46:25.220Z,9.60
2019-01-14T12:49:07.310Z,6.87
2019-01-14T12:51:49.520Z,5.40
2019-01-14T12:54:34.191Z,7.10
2019-01-14T12:57:17.723Z,6.07
2019-01-14T12:59:59.146Z,4.90
2019-01-14T13:02:41.208Z,5.57
2019-01-14T13:05:23.255Z,5.57
2019-01-14T13:08:05.173Z,10.03
2019-01-14T13:10:47.247Z,6.17
2019-01-14T13:13:28.805Z,8.50
2019-01-14T13:16:11.094Z,7.60
2019-01-14T13:18:52.974Z,6.97
2019-01-14T13:21:34.895Z,7.30
2019-01-14T13:24:19.281Z,5.07
2019-01-14T13:27:02.180Z,7.03
2019-01-14T13:29:44.334Z,5.13
2019-01-14T13:32:14.620Z,6.77
2019-01-14T13:34:46.456Z,7.23
2019-01-14T13:37:17.093Z,9.03
2019-01-14T13:39:47.216Z,5.93
2019-01-14T13:42:17.280Z,5.57
2019-01-14T13:44:47.416Z,5.50
2019-01-14T13:47:17.428Z,4.33
2019-01-14T13:49:47.553Z,7.07
2019-01-14T13:52:17.736Z,7.93
2019-01-14T13:54:48.023Z,7.77
2019-01-14T13:57:18.136Z,6.53
2019-01-14T13:59:48.394Z,5.53
2019-01-14T14:02:18.505Z,6.93
2019-01-14T14:04:50.221Z,7.63
2019-01-14T14:07:20.338Z,11.07
2019-01-14T14:09:50.487Z,5.63
2019-01-14T14:12:20.545Z,7.80
2019-01-14T14:14:50.612Z,8.00
2019-01-14T14:17:20.740Z,7.27
2019-01-14T14:19:53.875Z,7.53
2019-01-14T14:22:27.038Z,7.90
2019-01-14T14:24:57.188Z,10.27
2019-01-14T14:27:27.413Z,4.77
2019-01-14T14:29:57.657Z,4.40
2019-01-14T14:32:27.775Z,7.17
2019-01-14T14:34:57.932Z,6.00
2019-01-14T14:37:28.139Z,4.00
2019-01-14T14:39:58.406Z,7.03
2019-01-14T14:42:28.846Z,3.40
2019-01-14T14:44:59.054Z,4.20
2019-01-14T14:47:29.131Z,5.73
2019-01-14T14:49:59.581Z,4.37
2019-01-14T14:52:29.653Z,4.07
2019-01-14T14:54:59.685Z,5.77
2019-01-14T14:57:29.873Z,5.43
2019-01-14T15:00:00.041Z,8.77
2019-01-14T15:02:30.284Z,5.43
2019-01-14T15:05:00.495Z,6.87
2019-01-14T15:07:30.627Z,6.00
2019-01-14T15:10:00.742Z,7.00
2019-01-14T15:12:30.858Z,6.00
2019-01-14T15:15:01.210Z,7.57
2019-01-14T15:17:31.361Z,4.13
2019-01-14T15:20:01.516Z,7.60
2019-01-14T15:22:33.136Z,6.73
2019-01-14T15:25:03.330Z,8.07
2019-01-14T15:27:33.546Z,7.07
2019-01-14T15:30:05.283Z,8.43
2019-01-14T15:32:35.594Z,5.70
2019-01-14T15:35:06.118Z,5.10
2019-01-14T15:37:38.723Z,6.00
2019-01-14T15:40:10.611Z,5.70
2019-01-14T15:42:40.760Z,8.60
2019-01-14T15:45:13.179Z,6.80
2019-01-14T15:47:43.239Z,5.37
2019-01-14T15:50:14.913Z,9.00
2019-01-14T15:52:45.187Z,7.50
2019-01-14T15:55:17.616Z,5.20
2019-01-14T15:57:47.815Z,8.67
2019-01-14T16:00:18.526Z,10.00
2019-01-14T16:02:48.870Z,7.93
2019-01-14T16:05:19.037Z,5.77
2019-01-14T16:07:49.149Z,7.33
2019-01-14T16:10:21.313Z,7.57
2019-01-14T16:12:51.482Z,6.80
2019-01-14T16:15:21.684Z,6.93
2019-01-14T16:17:51.827Z,5.77
2019-01-14T16:20:23.985Z,10.30
2019-01-14T16:22:54.244Z,9.53
2019-01-14T16:25:24.340Z,10.20
2019-01-14T16:27:54.522Z,9.23
2019-01-14T16:30:28.564Z,8.93
2019-01-14T16:32:58.846Z,12.07
2019-01-14T16:35:29.090Z,9.00
2019-01-14T16:37:59.278Z,8.70
2019-01-14T16:40:29.453Z,9.20
2019-01-14T16:42:59.571Z,9.73
2019-01-14T16:45:29.731Z,7.80
2019-01-14T16:48:00.082Z,6.57
2019-01-14T16:50:31.566Z,5.70
2019-01-14T16:53:01.692Z,5.50
2019-01-14T16:55:52.846Z,12.00
2019-01-14T16:58:23.052Z,12.10
2019-01-14T17:00:53.155Z,8.27
2019-01-14T17:03:23.250Z,8.90
2019-01-14T17:05:53.327Z,13.10
2019-01-14T17:08:25.514Z,8.53
2019-01-14T17:10:59.197Z,12.67
2019-01-14T17:13:29.413Z,13.20
2019-01-14T17:15:59.514Z,10.23
2019-01-14T17:18:29.684Z,9.20
2019-01-14T17:20:59.869Z,12.00
2019-01-14T17:23:30.072Z,10.47
2019-01-14T17:26:00.420Z,14.00
2019-01-14T17:28:30.590Z,13.40
2019-01-14T17:31:00.749Z,13.77
2019-01-14T17:33:34.546Z,12.70
2019-01-14T17:36:04.603Z,11.73
2019-01-14T17:38:34.810Z,11.90
2019-01-14T17:41:04.962Z,11.50
2019-01-14T17:43:35.062Z,15.50
2019-01-14T17:46:05.562Z,12.43
2019-01-14T17:48:35.787Z,18.90
2019-01-14T17:51:06.126Z,15.20
2019-01-14T17:53:36.674Z,11.80
2019-01-14T17:56:06.910Z,14.30
2019-01-14T17:58:37.973Z,14.20
2019-01-14T18:01:08.185Z,16.13
2019-01-14T18:03:38.348Z,14.40
2019-01-14T18:06:08.494Z,14.63
2019-01-14T18:08:38.704Z,16.67
2019-01-14T18:11:08.838Z,9.93
2019-01-14T18:13:39.040Z,12.93
2019-01-14T18:16:11.928Z,12.00
2019-01-14T18:18:42.802Z,11.23
2019-01-14T18:21:13.933Z,12.80
2019-01-14T18:23:46.710Z,12.53
2019-01-14T18:26:18.990Z,15.23
2019-01-14T18:28:49.304Z,11.20
2019-01-14T18:31:21.188Z,15.20
2019-01-14T18:33:51.407Z,11.47
2019-01-14T18:36:21.658Z,13.53
2019-01-14T18:38:51.909Z,11.73
2019-01-14T18:41:22.122Z,14.20
2019-01-14T18:43:52.210Z,9.47
2019-01-14T18:46:22.259Z,12.43
2019-01-14T18:48:52.478Z,10.03
2019-01-14T18:51:22.634Z,9.00
2019-01-14T18:53:55.793Z,9.20
2019-01-14T18:56:26.051Z,10.17
2019-01-14T18:58:56.194Z,10.07
2019-01-14T19:01:26.389Z,12.00
2019-01-14T19:03:59.594Z,11.37
2019-01-14T19:06:29.803Z,11.73
2019-01-14T19:08:59.946Z,14.63
2019-01-14T19:11:30.135Z,9.13
2019-01-14T19:14:00.355Z,9.60
2019-01-14T19:16:30.664Z,11.40
2019-01-14T19:19:00.852Z,9.60
2019-01-14T19:21:31.011Z,14.17
2019-01-14T19:24:01.284Z,10.87
2019-01-14T19:26:31.472Z,8.50
2019-01-14T19:29:01.624Z,6.80
2019-01-14T19:31:31.751Z,9.40
2019-01-14T19:34:01.942Z,9.50
2019-01-14T19:36:32.181Z,8.67
2019-01-14T19:39:03.978Z,9.90
2019-01-14T19:41:34.116Z,8.73
2019-01-14T19:44:04.307Z,13.40
2019-01-14T19:46:34.496Z,10.27
2019-01-14T19:49:04.762Z,9.27
2019-01-14T19:51:34.909Z,7.77
2019-01-14T19:54:05.614Z,9.27
2019-01-14T19:56:35.885Z,8.63
2019-01-14T19:59:06.195Z,9.77
2019-01-14T20:01:36.458Z,9.07
2019-01-14T20:04:06.590Z,6.90
2019-01-14T20:06:36.669Z,10.60
2019-01-14T20:09:07.722Z,7.90
2019-01-14T20:11:37.846Z,7.27
2019-01-14T20:14:08.091Z,9.97
2019-01-14T20:16:38.266Z,14.37
2019-01-14T20:19:08.412Z,13.00
2019-01-14T20:21:38.598Z,11.13
2019-01-14T20:24:08.813Z,9.67
2019-01-14T20:26:41.311Z,9.17
2019-01-14T20:29:15.215Z,10.97
2019-01-14T20:31:45.321Z,10.80
2019-01-14T20:34:15.382Z,14.77
2019-01-14T20:36:45.586Z,9.23
2019-01-14T20:39:15.849Z,8.30
2019-01-14T20:41:46.086Z,12.37
2019-01-14T20:44:16.328Z,16.17
2019-01-14T20:46:46.566Z,16.40
2019-01-14T20:49:16.799Z,14.83
2019-01-14T20:51:50.138Z,12.18
2019-01-14T20:54:20.393Z,12.57
2019-01-14T20:56:50.503Z,9.37
2019-01-14T20:59:20.618Z,15.73
2019-01-14T21:01:50.663Z,13.47
2019-01-14T21:04:20.953Z,10.90
2019-01-14T21:06:51.091Z,11.30
2019-01-14T21:09:21.274Z,11.13
2019-01-14T21:11:51.520Z,18.43
2019-01-14T21:14:21.673Z,13.07
2019-01-14T21:16:51.820Z,13.17
2019-01-14T21:19:22.006Z,11.90
2019-01-14T21:21:52.166Z,10.77
2019-01-14T21:24:22.393Z,10.87
2019-01-14T21:26:52.584Z,13.80
2019-01-14T21:29:26.067Z,15.90
2019-01-14T21:31:54.825Z,14.27
2019-01-14T21:34:25.105Z,15.93
2019-01-14T21:36:55.255Z,17.37
2019-01-14T21:39:25.525Z,16.37
2019-01-14T21:41:55.646Z,16.27
2019-01-14T21:44:25.907Z,15.40
2019-01-14T21:46:56.076Z,13.83
2019-01-14T21:49:26.355Z,16.87
2019-01-14T21:51:56.537Z,15.10
2019-01-14T21:54:26.689Z,14.10
2019-01-14T21:56:56.988Z,13.77
2019-01-14T21:59:27.116Z,15.47
2019-01-14T22:01:57.317Z,16.30
2019-01-14T22:04:27.479Z,11.10
2019-01-14T22:06:57.611Z,16.90
2019-01-14T22:09:27.893Z,14.03
2019-01-14T22:11:58.052Z,13.87
2019-01-14T22:14:28.374Z,17.90
2019-01-14T22:16:58.499Z,17.60
2019-01-14T22:19:28.670Z,14.43
2019-01-14T22:21:58.858Z,16.17
2019-01-14T22:24:29.012Z,14.17
2019-01-14T22:26:59.200Z,16.27
2019-01-14T22:29:30.284Z,12.67
2019-01-14T22:32:00.651Z,14.93
2019-01-14T22:34:30.864Z,14.07
2019-01-14T22:37:01.025Z,12.00
2019-01-14T22:39:31.383Z,14.50
2019-01-14T22:42:01.466Z,9.23
2019-01-14T22:44:31.606Z,15.30
2019-01-14T22:47:01.832Z,12.87
2019-01-14T22:49:32.026Z,13.33
2019-01-14T22:52:02.207Z,17.67
2019-01-14T22:54:32.457Z,17.13
2019-01-14T22:57:02.625Z,13.40
2019-01-14T22:59:32.819Z,16.50
2019-01-14T23:02:03.095Z,12.13
2019-01-14T23:04:33.189Z,11.50
2019-01-14T23:07:03.464Z,15.27
2019-01-14T23:09:33.706Z,13.47
2019-01-14T23:12:04.066Z,18.50
2019-01-14T23:14:34.158Z,20.07
2019-01-14T23:17:04.266Z,16.23
2019-01-14T23:19:34.525Z,16.43
2019-01-14T23:22:04.650Z,17.13
2019-01-14T23:24:34.910Z,17.67
2019-01-14T23:27:06.027Z,18.40
2019-01-14T23:29:36.166Z,14.50
2019-01-14T23:32:06.314Z,15.47
2019-01-14T23:34:36.556Z,17.50
2019-01-14T23:37:06.705Z,17.53
2019-01-14T23:39:36.933Z,16.93
2019-01-14T23:42:07.275Z,23.27
2019-01-14T23:44:37.395Z,18.33
2019-01-14T23:47:07.588Z,18.67
2019-01-14T23:49:38.505Z,19.30
2019-01-14T23:52:08.647Z,16.20
2019-01-14T23:54:38.736Z,14.40
2019-01-14T23:57:08.917Z,16.73
2019-01-14T23:59:39.006Z,20.90
